PWSweather.com
Personal Weather Stations
Station Observations

MakarauRodneyNZ

Lat: -36.52421, Lon: 174.47572

Elevation: 606

Station Type: Davis VP2

http://kaiparaweather.dynu.net/index.php

High Low Average
Temperature 77.3°F25.2°C 58.0°F14.4°C 66.7°F19.3°C
Dew Point 64.6°F18.1°C 56.0°F13.3°C 60.3°F15.7°C
Winds 5.8 mph 9.3 kmh Calm Calm 1.0 mph SSW1.6 kmh SSW
Wind Gusts 11.5 mph18.5 kmh -- 2.0 mph3.2 kmh
Humidity 95% 59% 81%
Pressure 29.74 in1007.1 mb 29.66 in1004.4 mb -
Precipitation 0.02 in0.5 mm - -
Hour Temp Dew Point Humidity Winds Wind Gusts Pressure Precip Precip Rate Daily Precip Total
12:00 AM 59.9°F15.5°C 57.0°F13.9°C 90% Calm Calm 8.1 mph13.0 kmh 29.70 in1005.8 mb - 0.00 in0.0 mm 0.00 in0.0 mm
12:10 AM 59.9°F15.5°C 56.9°F13.8°C 90% 5.8 mph W9.3 kmh W 11.5 mph18.5 kmh 29.70 in1005.8 mb - 0.00 in0.0 mm 0.00 in0.0 mm
12:20 AM 59.8°F15.4°C 57.2°F14.0°C 91% 1.2 mph WSW1.9 kmh WSW 5.8 mph9.3 kmh 29.69 in1005.4 mb - 0.00 in0.0 mm 0.00 in0.0 mm
12:30 AM 59.9°F15.5°C 57.3°F14.1°C 91% 1.2 mph WSW1.9 kmh WSW 11.5 mph18.5 kmh 29.69 in1005.4 mb - 0.00 in0.0 mm 0.00 in0.0 mm
12:40 AM 59.7°F15.4°C 57.1°F13.9°C 91% 1.2 mph W1.9 kmh W 5.8 mph9.3 kmh 29.69 in1005.4 mb - 0.00 in0.0 mm 0.00 in0.0 mm
12:50 AM 59.6°F15.3°C 57.0°F13.9°C 91% 1.2 mph NW1.9 kmh NW 4.6 mph7.4 kmh 29.69 in1005.4 mb - 0.00 in0.0 mm 0.00 in0.0 mm
01:00 AM 59.7°F15.4°C 57.4°F14.1°C 92% 5.8 mph W9.3 kmh W 9.2 mph14.8 kmh 29.70 in1005.8 mb - 0.00 in0.0 mm 0.00 in0.0 mm
01:10 AM 59.4°F15.2°C 56.8°F13.8°C 91% Calm Calm -- 29.69 in1005.4 mb - 0.00 in0.0 mm 0.00 in0.0 mm
01:20 AM 59.2°F15.1°C 56.6°F13.7°C 91% Calm Calm -- 29.69 in1005.4 mb - 0.00 in0.0 mm 0.00 in0.0 mm
01:30 AM 59.3°F15.2°C 57.0°F13.9°C 92% 4.6 mph W7.4 kmh W 9.2 mph14.8 kmh 29.69 in1005.4 mb - 0.00 in0.0 mm 0.00 in0.0 mm
01:40 AM 59.5°F15.3°C 57.2°F14.0°C 92% 1.2 mph WNW1.9 kmh WNW 10.4 mph16.7 kmh 29.69 in1005.4 mb - 0.00 in0.0 mm 0.00 in0.0 mm
01:50 AM 59.7°F15.4°C 57.1°F13.9°C 91% 5.8 mph W9.3 kmh W 8.1 mph13.0 kmh 29.69 in1005.4 mb - 0.00 in0.0 mm 0.00 in0.0 mm
02:00 AM 59.5°F15.3°C 56.9°F13.8°C 91% Calm Calm -- 29.68 in1005.1 mb - 0.00 in0.0 mm 0.00 in0.0 mm
02:10 AM 59.2°F15.1°C 56.6°F13.7°C 91% Calm Calm -- 29.68 in1005.1 mb - 0.00 in0.0 mm 0.00 in0.0 mm
02:20 AM 59.1°F15.1°C 56.5°F13.6°C 91% Calm Calm -- 29.68 in1005.1 mb - 0.00 in0.0 mm 0.00 in0.0 mm
02:30 AM 59.3°F15.2°C 56.7°F13.7°C 91% 3.5 mph NNW5.6 kmh NNW 8.1 mph13.0 kmh 29.68 in1005.1 mb - 0.00 in0.0 mm 0.00 in0.0 mm
02:40 AM 59.5°F15.3°C 56.9°F13.8°C 91% 1.2 mph WSW1.9 kmh WSW 8.1 mph13.0 kmh 29.68 in1005.1 mb - 0.00 in0.0 mm 0.00 in0.0 mm
02:50 AM 59.6°F15.3°C 57.0°F13.9°C 91% 1.2 mph WSW1.9 kmh WSW 8.1 mph13.0 kmh 29.68 in1005.1 mb - 0.00 in0.0 mm 0.00 in0.0 mm
03:00 AM 59.7°F15.4°C 57.0°F13.9°C 91% 1.2 mph WSW1.9 kmh WSW 10.4 mph16.7 kmh 29.69 in1005.4 mb - 0.00 in0.0 mm 0.00 in0.0 mm
03:10 AM 59.5°F15.3°C 56.9°F13.8°C 91% Calm Calm -- 29.69 in1005.4 mb - 0.02 in0.5 mm 0.02 in0.5 mm
03:20 AM 59.3°F15.2°C 56.7°F13.7°C 91% Calm Calm -- 29.69 in1005.4 mb - 0.00 in0.0 mm 0.02 in0.5 mm
03:30 AM 59.2°F15.1°C 56.8°F13.8°C 92% Calm Calm -- 29.68 in1005.1 mb - 0.00 in0.0 mm 0.02 in0.5 mm
03:40 AM 59.1°F15.1°C 56.8°F13.8°C 92% Calm Calm -- 29.68 in1005.1 mb - 0.00 in0.0 mm 0.02 in0.5 mm
03:50 AM 59.0°F15.0°C 56.7°F13.7°C 92% Calm Calm -- 29.69 in1005.4 mb - 0.00 in0.0 mm 0.02 in0.5 mm
04:00 AM 58.9°F14.9°C 56.6°F13.7°C 92% Calm Calm -- 29.69 in1005.4 mb - 0.00 in0.0 mm 0.02 in0.5 mm
04:10 AM 58.6°F14.8°C 56.3°F13.5°C 92% Calm Calm -- 29.69 in1005.4 mb - 0.00 in0.0 mm 0.02 in0.5 mm
04:20 AM 58.4°F14.7°C 56.4°F13.6°C 93% Calm Calm -- 29.69 in1005.4 mb - 0.00 in0.0 mm 0.02 in0.5 mm
04:30 AM 58.4°F14.7°C 56.4°F13.6°C 93% Calm Calm -- 29.69 in1005.4 mb - 0.00 in0.0 mm 0.02 in0.5 mm
04:40 AM 58.3°F14.6°C 56.3°F13.5°C 93% Calm Calm -- 29.69 in1005.4 mb - 0.00 in0.0 mm 0.02 in0.5 mm
04:50 AM 58.2°F14.6°C 56.2°F13.4°C 93% Calm Calm -- 29.70 in1005.8 mb - 0.00 in0.0 mm 0.02 in0.5 mm
05:00 AM 58.2°F14.6°C 56.2°F13.4°C 93% Calm Calm -- 29.70 in1005.8 mb - 0.00 in0.0 mm 0.02 in0.5 mm
05:10 AM 58.1°F14.5°C 56.1°F13.4°C 93% Calm Calm -- 29.70 in1005.8 mb - 0.00 in0.0 mm 0.02 in0.5 mm
05:20 AM 58.0°F14.4°C 56.0°F13.3°C 93% Calm Calm -- 29.70 in1005.8 mb - 0.00 in0.0 mm 0.02 in0.5 mm
05:30 AM 58.1°F14.5°C 56.0°F13.3°C 93% Calm Calm -- 29.70 in1005.8 mb - 0.00 in0.0 mm 0.02 in0.5 mm
05:40 AM 58.1°F14.5°C 56.4°F13.6°C 94% Calm Calm -- 29.70 in1005.8 mb - 0.00 in0.0 mm 0.02 in0.5 mm
05:50 AM 58.2°F14.6°C 56.2°F13.4°C 93% Calm Calm -- 29.71 in1006.1 mb - 0.00 in0.0 mm 0.02 in0.5 mm
06:00 AM 58.2°F14.6°C 56.5°F13.6°C 94% Calm Calm -- 29.71 in1006.1 mb - 0.00 in0.0 mm 0.02 in0.5 mm
06:10 AM 58.4°F14.7°C 56.6°F13.7°C 94% Calm Calm -- 29.71 in1006.1 mb - 0.00 in0.0 mm 0.02 in0.5 mm
06:20 AM 58.5°F14.7°C 56.8°F13.8°C 94% Calm Calm -- 29.72 in1006.4 mb - 0.00 in0.0 mm 0.02 in0.5 mm
06:30 AM 59.0°F15.0°C 57.3°F14.1°C 94% Calm Calm -- 29.72 in1006.4 mb - 0.00 in0.0 mm 0.02 in0.5 mm
06:40 AM 60.0°F15.6°C 58.6°F14.8°C 95% Calm Calm -- 29.72 in1006.4 mb - 0.00 in0.0 mm 0.02 in0.5 mm
06:50 AM 61.4°F16.3°C 59.6°F15.3°C 94% Calm Calm -- 29.73 in1006.8 mb - 0.00 in0.0 mm 0.02 in0.5 mm
07:00 AM 62.5°F16.9°C 60.4°F15.8°C 93% Calm Calm -- 29.73 in1006.8 mb - 0.00 in0.0 mm 0.02 in0.5 mm
07:10 AM 62.4°F16.9°C 59.7°F15.4°C 91% Calm Calm -- 29.73 in1006.8 mb - 0.00 in0.0 mm 0.02 in0.5 mm
07:20 AM 63.0°F17.2°C 60.3°F15.7°C 91% Calm Calm -- 29.73 in1006.8 mb - 0.00 in0.0 mm 0.02 in0.5 mm
07:30 AM 64.0°F17.8°C 61.3°F16.3°C 91% Calm Calm 1.2 mph1.9 kmh 29.74 in1007.1 mb - 0.00 in0.0 mm 0.02 in0.5 mm
07:40 AM 64.4°F18.0°C 61.1°F16.2°C 89% Calm Calm 3.5 mph5.6 kmh 29.74 in1007.1 mb - 0.00 in0.0 mm 0.02 in0.5 mm
07:50 AM 64.8°F18.2°C 60.8°F16.0°C 87% 1.2 mph W1.9 kmh W 8.1 mph13.0 kmh 29.74 in1007.1 mb - 0.00 in0.0 mm 0.02 in0.5 mm
08:00 AM 65.4°F18.6°C 60.4°F15.8°C 84% Calm Calm -- 29.73 in1006.8 mb - 0.00 in0.0 mm 0.02 in0.5 mm
08:10 AM 64.7°F18.2°C 59.4°F15.2°C 83% Calm Calm -- 29.73 in1006.8 mb - 0.00 in0.0 mm 0.02 in0.5 mm
08:20 AM 65.3°F18.5°C 60.0°F15.6°C 83% Calm Calm -- 29.73 in1006.8 mb - 0.00 in0.0 mm 0.02 in0.5 mm
08:30 AM 67.7°F19.8°C 60.9°F16.1°C 79% 1.2 mph NW1.9 kmh NW 4.6 mph7.4 kmh 29.73 in1006.8 mb - 0.00 in0.0 mm 0.02 in0.5 mm
08:40 AM 67.7°F19.8°C 60.6°F15.9°C 78% Calm Calm -- 29.73 in1006.8 mb - 0.00 in0.0 mm 0.02 in0.5 mm
08:50 AM 67.8°F19.9°C 60.3°F15.7°C 77% Calm Calm -- 29.73 in1006.8 mb - 0.00 in0.0 mm 0.02 in0.5 mm
09:00 AM 69.1°F20.6°C 61.2°F16.2°C 76% Calm Calm 3.5 mph5.6 kmh 29.73 in1006.8 mb - 0.00 in0.0 mm 0.02 in0.5 mm
09:10 AM 68.7°F20.4°C 60.8°F16.0°C 76% Calm Calm 2.3 mph3.7 kmh 29.73 in1006.8 mb - 0.00 in0.0 mm 0.02 in0.5 mm
09:20 AM 69.4°F20.8°C 60.4°F15.8°C 73% Calm Calm -- 29.73 in1006.8 mb - 0.00 in0.0 mm 0.02 in0.5 mm
09:30 AM 70.5°F21.4°C 61.4°F16.3°C 73% 5.8 mph N9.3 kmh N 10.4 mph16.7 kmh 29.73 in1006.8 mb - 0.00 in0.0 mm 0.02 in0.5 mm
09:40 AM 71.4°F21.9°C 61.5°F16.4°C 71% 1.2 mph NNW1.9 kmh NNW 5.8 mph9.3 kmh 29.73 in1006.8 mb - 0.00 in0.0 mm 0.02 in0.5 mm
09:50 AM 72.1°F22.3°C 60.9°F16.1°C 68% Calm Calm -- 29.73 in1006.8 mb - 0.00 in0.0 mm 0.02 in0.5 mm
10:00 AM 72.8°F22.7°C 62.1°F16.7°C 69% Calm Calm -- 29.73 in1006.8 mb - 0.00 in0.0 mm 0.02 in0.5 mm
10:10 AM 73.3°F22.9°C 61.7°F16.5°C 67% 1.2 mph NW1.9 kmh NW 5.8 mph9.3 kmh 29.73 in1006.8 mb - 0.00 in0.0 mm 0.02 in0.5 mm
10:20 AM 73.5°F23.1°C 61.4°F16.3°C 66% Calm Calm 1.2 mph1.9 kmh 29.73 in1006.8 mb - 0.00 in0.0 mm 0.02 in0.5 mm
10:30 AM 73.4°F23.0°C 61.3°F16.3°C 66% 1.2 mph NW1.9 kmh NW 4.6 mph7.4 kmh 29.72 in1006.4 mb - 0.00 in0.0 mm 0.02 in0.5 mm
10:40 AM 73.3°F22.9°C 60.4°F15.8°C 64% Calm Calm -- 29.72 in1006.4 mb - 0.00 in0.0 mm 0.02 in0.5 mm
10:50 AM 72.1°F22.3°C 59.7°F15.4°C 65% Calm Calm -- 29.71 in1006.1 mb - 0.00 in0.0 mm 0.02 in0.5 mm
11:00 AM 72.3°F22.4°C 59.4°F15.2°C 64% Calm Calm 6.9 mph11.1 kmh 29.71 in1006.1 mb - 0.00 in0.0 mm 0.02 in0.5 mm
11:10 AM 72.5°F22.5°C 60.9°F16.1°C 67% Calm Calm 1.2 mph1.9 kmh 29.71 in1006.1 mb - 0.00 in0.0 mm 0.02 in0.5 mm
11:20 AM 72.5°F22.5°C 63.0°F17.2°C 72% 1.2 mph WNW1.9 kmh WNW 5.8 mph9.3 kmh 29.71 in1006.1 mb - 0.00 in0.0 mm 0.02 in0.5 mm
11:30 AM 72.3°F22.4°C 61.2°F16.2°C 68% 3.5 mph NNW5.6 kmh NNW 5.8 mph9.3 kmh 29.71 in1006.1 mb - 0.00 in0.0 mm 0.02 in0.5 mm
11:40 AM 73.9°F23.3°C 62.2°F16.8°C 67% Calm Calm -- 29.71 in1006.1 mb - 0.00 in0.0 mm 0.02 in0.5 mm
11:50 AM 72.5°F22.5°C 61.7°F16.5°C 69% 1.2 mph SW1.9 kmh SW 4.6 mph7.4 kmh 29.71 in1006.1 mb - 0.00 in0.0 mm 0.02 in0.5 mm
12:00 PM 72.0°F22.2°C 61.7°F16.5°C 70% Calm Calm -- 29.71 in1006.1 mb - 0.00 in0.0 mm 0.02 in0.5 mm
12:10 PM 73.8°F23.2°C 62.1°F16.7°C 67% Calm Calm 8.1 mph13.0 kmh 29.71 in1006.1 mb - 0.00 in0.0 mm 0.02 in0.5 mm
12:20 PM 73.9°F23.3°C 62.7°F17.1°C 68% 4.6 mph NNW7.4 kmh NNW 8.1 mph13.0 kmh 29.72 in1006.4 mb - 0.00 in0.0 mm 0.02 in0.5 mm
12:30 PM 75.3°F24.1°C 64.0°F17.8°C 68% 3.5 mph NW5.6 kmh NW 5.8 mph9.3 kmh 29.71 in1006.1 mb - 0.00 in0.0 mm 0.02 in0.5 mm
12:40 PM 74.6°F23.7°C 62.0°F16.7°C 65% 5.8 mph NNW9.3 kmh NNW 10.4 mph16.7 kmh 29.70 in1005.8 mb - 0.00 in0.0 mm 0.02 in0.5 mm
12:50 PM 74.4°F23.6°C 63.2°F17.3°C 68% 1.2 mph NW1.9 kmh NW 6.9 mph11.1 kmh 29.70 in1005.8 mb - 0.00 in0.0 mm 0.02 in0.5 mm
01:00 PM 75.7°F24.3°C 60.3°F15.7°C 59% 1.2 mph N1.9 kmh N 6.9 mph11.1 kmh 29.71 in1006.1 mb - 0.00 in0.0 mm 0.02 in0.5 mm
01:10 PM 75.5°F24.2°C 60.7°F15.9°C 60% Calm Calm -- 29.71 in1006.1 mb - 0.00 in0.0 mm 0.02 in0.5 mm
01:20 PM 75.4°F24.1°C 61.0°F16.1°C 61% Calm Calm -- 29.71 in1006.1 mb - 0.00 in0.0 mm 0.02 in0.5 mm
01:30 PM 75.7°F24.3°C 60.4°F15.8°C 59% 2.3 mph NNW3.7 kmh NNW 4.6 mph7.4 kmh 29.70 in1005.8 mb - 0.00 in0.0 mm 0.02 in0.5 mm
01:40 PM 76.3°F24.6°C 60.9°F16.1°C 59% Calm Calm 3.5 mph5.6 kmh 29.70 in1005.8 mb - 0.00 in0.0 mm 0.02 in0.5 mm
01:50 PM 76.2°F24.6°C 61.7°F16.5°C 61% Calm Calm 2.3 mph3.7 kmh 29.70 in1005.8 mb - 0.00 in0.0 mm 0.02 in0.5 mm
02:00 PM 76.3°F24.6°C 62.8°F17.1°C 63% Calm Calm -- 29.69 in1005.4 mb - 0.00 in0.0 mm 0.02 in0.5 mm
02:10 PM 76.3°F24.6°C 62.8°F17.1°C 63% 1.2 mph WSW1.9 kmh WSW 6.9 mph11.1 kmh 29.69 in1005.4 mb - 0.00 in0.0 mm 0.02 in0.5 mm
02:20 PM 76.3°F24.6°C 62.3°F16.8°C 62% 1.2 mph NW1.9 kmh NW 5.8 mph9.3 kmh 29.70 in1005.8 mb - 0.00 in0.0 mm 0.02 in0.5 mm
02:30 PM 75.8°F24.3°C 62.3°F16.8°C 63% Calm Calm -- 29.70 in1005.8 mb - 0.00 in0.0 mm 0.02 in0.5 mm
02:40 PM 76.1°F24.5°C 63.5°F17.5°C 65% Calm Calm 1.2 mph1.9 kmh 29.70 in1005.8 mb - 0.00 in0.0 mm 0.02 in0.5 mm
02:50 PM 77.3°F25.2°C 63.3°F17.4°C 62% Calm Calm -- 29.70 in1005.8 mb - 0.00 in0.0 mm 0.02 in0.5 mm
03:00 PM 77.2°F25.1°C 63.6°F17.6°C 63% Calm Calm -- 29.70 in1005.8 mb - 0.00 in0.0 mm 0.02 in0.5 mm
03:10 PM 76.0°F24.4°C 62.1°F16.7°C 62% Calm Calm -- 29.70 in1005.8 mb - 0.00 in0.0 mm 0.02 in0.5 mm
03:20 PM 75.1°F23.9°C 62.5°F16.9°C 65% Calm Calm -- 29.70 in1005.8 mb - 0.00 in0.0 mm 0.02 in0.5 mm
03:30 PM 75.0°F23.9°C 64.2°F17.9°C 69% Calm Calm -- 29.69 in1005.4 mb - 0.00 in0.0 mm 0.02 in0.5 mm
03:40 PM 75.5°F24.2°C 64.6°F18.1°C 69% Calm Calm -- 29.69 in1005.4 mb - 0.00 in0.0 mm 0.02 in0.5 mm
03:50 PM 75.9°F24.4°C 64.1°F17.8°C 67% Calm Calm -- 29.69 in1005.4 mb - 0.00 in0.0 mm 0.02 in0.5 mm
04:00 PM 75.4°F24.1°C 64.1°F17.8°C 68% Calm Calm -- 29.68 in1005.1 mb - 0.00 in0.0 mm 0.02 in0.5 mm
04:10 PM 74.5°F23.6°C 64.5°F18.1°C 71% Calm Calm -- 29.69 in1005.4 mb - 0.00 in0.0 mm 0.02 in0.5 mm
04:20 PM 73.3°F22.9°C 64.5°F18.1°C 74% Calm Calm -- 29.69 in1005.4 mb - 0.00 in0.0 mm 0.02 in0.5 mm
04:30 PM 72.6°F22.6°C 64.2°F17.9°C 75% Calm Calm -- 29.68 in1005.1 mb - 0.00 in0.0 mm 0.02 in0.5 mm
04:40 PM 72.4°F22.4°C 64.4°F18.0°C 76% Calm Calm -- 29.68 in1005.1 mb - 0.00 in0.0 mm 0.02 in0.5 mm
04:50 PM 71.8°F22.1°C 63.4°F17.4°C 75% Calm Calm -- 29.68 in1005.1 mb - 0.00 in0.0 mm 0.02 in0.5 mm
05:00 PM 71.8°F22.1°C 63.8°F17.7°C 76% Calm Calm 1.2 mph1.9 kmh 29.68 in1005.1 mb - 0.00 in0.0 mm 0.02 in0.5 mm
05:10 PM 71.8°F22.1°C 63.5°F17.5°C 75% Calm Calm -- 29.68 in1005.1 mb - 0.00 in0.0 mm 0.02 in0.5 mm
05:20 PM 72.1°F22.3°C 63.7°F17.6°C 75% Calm Calm -- 29.67 in1004.7 mb - 0.00 in0.0 mm 0.02 in0.5 mm
05:30 PM 71.4°F21.9°C 63.1°F17.3°C 75% Calm Calm -- 29.67 in1004.7 mb - 0.00 in0.0 mm 0.02 in0.5 mm
05:40 PM 70.6°F21.4°C 62.2°F16.8°C 75% Calm Calm -- 29.67 in1004.7 mb - 0.00 in0.0 mm 0.02 in0.5 mm
05:50 PM 70.1°F21.2°C 62.5°F16.9°C 77% Calm Calm 3.5 mph5.6 kmh 29.66 in1004.4 mb - 0.00 in0.0 mm 0.02 in0.5 mm
06:00 PM 69.3°F20.7°C 61.4°F16.3°C 76% Calm Calm -- 29.67 in1004.7 mb - 0.00 in0.0 mm 0.02 in0.5 mm
06:10 PM 68.9°F20.5°C 61.0°F16.1°C 76% Calm Calm -- 29.68 in1005.1 mb - 0.00 in0.0 mm 0.02 in0.5 mm
06:20 PM 68.6°F20.3°C 61.1°F16.2°C 77% Calm Calm -- 29.68 in1005.1 mb - 0.00 in0.0 mm 0.02 in0.5 mm
06:30 PM 68.5°F20.3°C 61.4°F16.3°C 78% Calm Calm -- 29.68 in1005.1 mb - 0.00 in0.0 mm 0.02 in0.5 mm
06:40 PM 68.3°F20.2°C 61.2°F16.2°C 78% Calm Calm -- 29.69 in1005.4 mb - 0.00 in0.0 mm 0.02 in0.5 mm
06:50 PM 67.9°F19.9°C 60.8°F16.0°C 78% Calm Calm -- 29.69 in1005.4 mb - 0.00 in0.0 mm 0.02 in0.5 mm
07:00 PM 67.6°F19.8°C 60.5°F15.8°C 78% Calm Calm -- 29.69 in1005.4 mb - 0.00 in0.0 mm 0.02 in0.5 mm
07:10 PM 67.5°F19.7°C 60.8°F16.0°C 79% Calm Calm -- 29.69 in1005.4 mb - 0.00 in0.0 mm 0.02 in0.5 mm
07:20 PM 67.3°F19.6°C 61.3°F16.3°C 81% Calm Calm -- 29.69 in1005.4 mb - 0.00 in0.0 mm 0.02 in0.5 mm
07:30 PM 66.9°F19.4°C 60.8°F16.0°C 81% Calm Calm -- 29.69 in1005.4 mb - 0.00 in0.0 mm 0.02 in0.5 mm
07:40 PM 66.5°F19.2°C 60.8°F16.0°C 82% Calm Calm -- 29.69 in1005.4 mb - 0.00 in0.0 mm 0.02 in0.5 mm
07:50 PM 66.2°F19.0°C 60.9°F16.1°C 83% Calm Calm -- 29.70 in1005.8 mb - 0.00 in0.0 mm 0.02 in0.5 mm
08:00 PM 66.0°F18.9°C 61.0°F16.1°C 84% Calm Calm -- 29.70 in1005.8 mb - 0.00 in0.0 mm 0.02 in0.5 mm
08:10 PM 65.9°F18.8°C 61.2°F16.2°C 85% Calm Calm -- 29.70 in1005.8 mb - 0.00 in0.0 mm 0.02 in0.5 mm
08:20 PM 65.7°F18.7°C 61.1°F16.2°C 85% Calm Calm -- 29.71 in1006.1 mb - 0.00 in0.0 mm 0.02 in0.5 mm
08:30 PM 65.7°F18.7°C 61.4°F16.3°C 86% Calm Calm -- 29.71 in1006.1 mb - 0.00 in0.0 mm 0.02 in0.5 mm
08:40 PM 65.5°F18.6°C 61.2°F16.2°C 86% Calm Calm -- 29.71 in1006.1 mb - 0.00 in0.0 mm 0.02 in0.5 mm
08:50 PM 65.5°F18.6°C 61.2°F16.2°C 86% Calm Calm -- 29.71 in1006.1 mb - 0.00 in0.0 mm 0.02 in0.5 mm
09:00 PM 65.3°F18.5°C 61.0°F16.1°C 86% Calm Calm -- 29.71 in1006.1 mb - 0.00 in0.0 mm 0.02 in0.5 mm
09:10 PM 65.2°F18.4°C 61.2°F16.2°C 87% Calm Calm -- 29.71 in1006.1 mb - 0.00 in0.0 mm 0.02 in0.5 mm
09:20 PM 65.0°F18.3°C 61.0°F16.1°C 87% Calm Calm -- 29.71 in1006.1 mb - 0.00 in0.0 mm 0.02 in0.5 mm
09:30 PM 64.8°F18.2°C 60.8°F16.0°C 87% Calm Calm -- 29.71 in1006.1 mb - 0.00 in0.0 mm 0.02 in0.5 mm
09:40 PM 64.6°F18.1°C 61.0°F16.1°C 88% 1.2 mph ENE1.9 kmh ENE 3.5 mph5.6 kmh 29.70 in1005.8 mb - 0.00 in0.0 mm 0.02 in0.5 mm
09:50 PM 64.4°F18.0°C 60.8°F16.0°C 88% 2.3 mph ENE3.7 kmh ENE 4.6 mph7.4 kmh 29.69 in1005.4 mb - 0.00 in0.0 mm 0.02 in0.5 mm
10:00 PM 64.4°F18.0°C 61.1°F16.2°C 89% Calm Calm -- 29.70 in1005.8 mb - 0.00 in0.0 mm 0.02 in0.5 mm
10:10 PM 64.4°F18.0°C 61.1°F16.2°C 89% Calm Calm -- 29.72 in1006.4 mb - 0.00 in0.0 mm 0.02 in0.5 mm
10:20 PM 64.4°F18.0°C 61.1°F16.2°C 89% Calm Calm -- 29.72 in1006.4 mb - 0.00 in0.0 mm 0.02 in0.5 mm
10:30 PM 64.4°F18.0°C 61.4°F16.3°C 90% Calm Calm -- 29.72 in1006.4 mb - 0.00 in0.0 mm 0.02 in0.5 mm
10:40 PM 64.4°F18.0°C 61.1°F16.2°C 89% Calm Calm -- 29.71 in1006.1 mb - 0.00 in0.0 mm 0.02 in0.5 mm
10:50 PM 64.4°F18.0°C 61.4°F16.3°C 90% Calm Calm -- 29.71 in1006.1 mb - 0.00 in0.0 mm 0.02 in0.5 mm
11:00 PM 64.5°F18.1°C 61.5°F16.4°C 90% Calm Calm -- 29.71 in1006.1 mb - 0.00 in0.0 mm 0.02 in0.5 mm
11:10 PM 64.5°F18.1°C 61.5°F16.4°C 90% Calm Calm -- 29.70 in1005.8 mb - 0.00 in0.0 mm 0.02 in0.5 mm
11:20 PM 64.4°F18.0°C 61.4°F16.3°C 90% Calm Calm -- 29.70 in1005.8 mb - 0.00 in0.0 mm 0.02 in0.5 mm
11:30 PM 64.4°F18.0°C 61.4°F16.3°C 90% Calm Calm -- 29.71 in1006.1 mb - 0.00 in0.0 mm 0.02 in0.5 mm
11:40 PM 64.3°F17.9°C 61.6°F16.4°C 91% Calm Calm -- 29.71 in1006.1 mb - 0.00 in0.0 mm 0.02 in0.5 mm
11:50 PM 64.3°F17.9°C 61.6°F16.4°C 91% Calm Calm -- 29.70 in1005.8 mb - 0.00 in0.0 mm 0.02 in0.5 mm